Time;durP1;ratioP1;P1;durP2;ratioP2;P2;SDS_P1;SDS_P2;PMS_P1;PMS_P2;Temp;Humidity;BMP_temperature;BMP_pressure;BME280_temperature;BME280_humidity;BME280_pressure;Samples;Min_cycle;Max_cycle;Signal;HPM_P1;HPM_P2
2022/11/11 00:01:52;;;;;;;;;;;;;;;8.66;66.34;96771.88;5050671;28;20013;-67
2022/11/11 00:04:18;;;;;;;;;;;;;;;8.64;66.15;96772.13;5051210;28;20021;-66
2022/11/11 00:06:43;;;;;;;;;;;;;;;8.63;66.03;96759.91;5050027;28;20020;-67
2022/11/11 00:09:08;;;;;;;;;;;;;;;8.62;66.00;96765.47;5051111;28;20061;-67
2022/11/11 00:11:36;;;;;;;;;;;;;;;8.59;65.89;96753.50;5051295;28;20014;-67
2022/11/11 00:14:01;;;;;;;;;;;;;;;8.54;66.08;96764.84;5049782;28;20473;-67
2022/11/11 00:25:04;;;;;;;;;;;;;;;8.54;65.95;96766.72;5049446;28;20017;-67
2022/11/11 00:27:23;;;;;;;;;;;;;;;8.42;66.31;96772.16;5050776;28;20016;-68
2022/11/11 00:29:48;;;;;;;;;;;;;;;8.38;66.50;96775.56;5050891;28;20543;-67
2022/11/11 00:32:23;;;;;;;;;;;;;;;8.37;66.13;96776.63;5050747;28;20104;-67
2022/11/11 00:37:33;;;;;;;;;;;;;;;8.34;66.05;96781.34;5050752;28;20016;-66
2022/11/11 00:39:58;;;;;;;;;;;;;;;8.34;66.28;96770.75;5050499;28;20013;-67
2022/11/11 00:42:24;;;;;;;;;;;;;;;8.33;66.50;96768.31;5049375;28;20040;-66
2022/11/11 00:44:49;;;;;;;;;;;;;;;8.32;66.30;96772.84;5050008;28;20116;-67
2022/11/11 00:52:45;;;;;;;;;;;;;;;8.42;66.25;96760.75;5031363;28;20021;-66
2022/11/11 00:55:11;;;;;;;;;;;;;;;8.42;66.17;96761.56;5046617;28;20019;-67
2022/11/11 00:57:36;;;;;;;;;;;;;;;8.34;66.03;96759.31;5049900;28;20009;-67
2022/11/11 01:00:01;;;;;;;;;;;;;;;8.30;66.47;96748.44;5050282;28;20013;-66
2022/11/11 01:02:27;;;;;;;;;;;;;;;8.28;66.54;96750.50;5046690;28;20414;-66
2022/11/11 01:04:52;;;;;;;;;;;;;;;8.25;66.64;96743.06;5048711;28;20570;-67
2022/11/11 01:07:17;;;;;;;;;;;;;;;8.23;66.83;96742.50;5050651;28;20062;-66
2022/11/11 01:09:43;;;;;;;;;;;;;;;8.20;66.57;96737.72;5049013;28;20005;-65
2022/11/11 01:12:08;;;;;;;;;;;;;;;8.21;66.37;96744.63;5048797;28;20014;-66
2022/11/11 01:14:33;;;;;;;;;;;;;;;8.20;66.76;96743.03;5048659;28;20016;-66
2022/11/11 01:16:59;;;;;;;;;;;;;;;8.19;66.60;96746.72;5049205;28;20020;-65
2022/11/11 01:19:24;;;;;;;;;;;;;;;8.18;66.12;96746.97;5049624;28;20014;-65
2022/11/11 01:21:49;;;;;;;;;;;;;;;8.19;66.32;96751.19;5048401;28;20021;-65
2022/11/11 01:24:14;;;;;;;;;;;;;;;8.17;66.36;96746.16;5049606;28;20024;-66
2022/11/11 01:26:40;;;;;;;;;;;;;;;8.15;66.33;96750.91;5049926;28;20005;-67
2022/11/11 01:29:05;;;;;;;;;;;;;;;8.04;66.72;96751.88;5049561;28;20010;-66
2022/11/11 01:31:30;;;;;;;;;;;;;;;8.00;67.01;96745.44;5048467;28;20021;-66
2022/11/11 01:33:56;;;;;;;;;;;;;;;8.03;66.69;96747.59;5049478;28;20519;-66
2022/11/11 01:36:22;;;;;;;;;;;;;;;8.03;66.96;96758.19;5049954;28;20378;-66
2022/11/11 01:38:52;;;;;;;;;;;;;;;8.01;66.90;96758.44;5049419;28;21003;-66
2022/11/11 01:41:32;;;;;;;;;;;;;;;8.04;67.32;96741.25;5045762;28;20057;-65
2022/11/11 01:44:16;;;;;;;;;;;;;;;8.05;66.81;96751.59;5049487;28;20009;-66
2022/11/11 01:46:41;;;;;;;;;;;;;;;8.08;66.47;96742.34;5048580;28;20014;-67
2022/11/11 01:49:26;;;;;;;;;;;;;;;8.06;66.57;96747.09;5048913;28;20104;-67
2022/11/11 01:51:59;;;;;;;;;;;;;;;8.04;66.60;96746.56;5048948;28;20013;-67
2022/11/11 01:54:27;;;;;;;;;;;;;;;8.04;66.38;96744.72;5048949;28;20010;-66
2022/11/11 01:56:56;;;;;;;;;;;;;;;8.03;66.20;96748.38;5049622;28;20898;-67
2022/11/11 01:59:21;;;;;;;;;;;;;;;8.00;66.40;96758.69;5048959;28;20071;-65
2022/11/11 02:01:47;;;;;;;;;;;;;;;7.97;66.23;96744.09;5048013;28;20485;-66
2022/11/11 02:06:59;;;;;;;;;;;;;;;7.88;66.21;96748.22;5048546;28;20108;-67
2022/11/11 02:09:24;;;;;;;;;;;;;;;7.86;66.23;96741.56;5048776;28;20363;-67
2022/11/11 02:14:38;;;;;;;;;;;;;;;7.80;66.24;96743.34;5037455;28;20072;-65
2022/11/11 02:17:09;;;;;;;;;;;;;;;7.78;66.36;96743.63;5044048;28;20493;-67
2022/11/11 02:19:54;;;;;;;;;;;;;;;7.77;66.21;96749.13;5050015;28;20005;-67
2022/11/11 02:22:23;;;;;;;;;;;;;;;7.74;66.22;96753.09;5044830;28;20017;-66
2022/11/11 02:24:49;;;;;;;;;;;;;;;7.74;66.57;96755.75;5048375;28;20021;-66
2022/11/11 02:27:15;;;;;;;;;;;;;;;7.75;66.13;96753.88;5048747;28;20014;-67
2022/11/11 02:29:42;;;;;;;;;;;;;;;7.74;66.48;96744.34;5047280;28;20487;-67
2022/11/11 02:32:07;;;;;;;;;;;;;;;7.74;66.14;96745.16;5048782;28;20014;-66
2022/11/11 02:34:33;;;;;;;;;;;;;;;7.74;66.24;96742.50;5044517;28;20009;-67
2022/11/11 02:37:00;;;;;;;;;;;;;;;7.72;66.01;96752.53;5048246;28;20105;-67
2022/11/11 02:39:25;;;;;;;;;;;;;;;7.73;66.50;96750.69;5047684;28;20013;-66
2022/11/11 02:41:57;;;;;;;;;;;;;;;7.75;66.49;96757.34;5048254;28;20033;-66
2022/11/11 02:44:22;;;;;;;;;;;;;;;7.75;66.29;96753.88;5047927;28;20044;-67
2022/11/11 02:46:48;;;;;;;;;;;;;;;7.74;66.06;96760.25;5046775;28;20729;-67
2022/11/11 02:49:13;;;;;;;;;;;;;;;7.73;66.05;96761.28;5048446;28;20037;-67
2022/11/11 02:51:38;;;;;;;;;;;;;;;7.72;66.43;96757.81;5049036;28;20017;-66
2022/11/11 02:54:04;;;;;;;;;;;;;;;7.57;66.81;96760.25;5048677;28;20413;-67
2022/11/11 02:59:13;;;;;;;;;;;;;;;7.46;67.60;96772.56;5048278;28;20064;-66
2022/11/11 03:01:38;;;;;;;;;;;;;;;7.44;67.46;96772.03;5045946;28;20021;-67
2022/11/11 03:04:04;;;;;;;;;;;;;;;7.55;67.34;96788.84;5049544;28;20013;-66
2022/11/11 03:06:29;;;;;;;;;;;;;;;7.58;66.73;96784.94;5047942;28;20100;-67
2022/11/11 03:08:54;;;;;;;;;;;;;;;7.59;66.99;96776.72;5047403;28;20071;-67
2022/11/11 03:11:26;;;;;;;;;;;;;;;7.64;66.74;96787.41;5048840;28;20105;-66
2022/11/11 03:13:52;;;;;;;;;;;;;;;7.63;66.64;96791.09;5050129;28;20005;-66
2022/11/11 03:19:02;;;;;;;;;;;;;;;7.61;66.32;96810.91;5052496;28;20064;-65
2022/11/11 03:21:27;;;;;;;;;;;;;;;7.62;66.37;96815.94;5051640;28;20102;-67
2022/11/11 03:23:52;;;;;;;;;;;;;;;7.61;66.20;96814.34;5053486;28;20029;-66
2022/11/11 03:26:18;;;;;;;;;;;;;;;7.59;66.41;96826.25;5052085;28;20017;-66
2022/11/11 03:28:43;;;;;;;;;;;;;;;7.58;66.17;96832.59;5051257;28;20021;-66
2022/11/11 03:31:08;;;;;;;;;;;;;;;7.55;66.13;96825.91;5051239;28;20041;-66
2022/11/11 03:33:34;;;;;;;;;;;;;;;7.53;65.49;96833.31;5052499;28;20013;-65
2022/11/11 03:35:59;;;;;;;;;;;;;;;7.53;65.44;96833.31;5060963;28;20036;-67
2022/11/11 03:38:24;;;;;;;;;;;;;;;7.49;65.85;96834.84;5059356;28;20429;-66
2022/11/11 03:40:53;;;;;;;;;;;;;;;7.48;65.38;96835.88;5051991;28;20021;-66
2022/11/11 03:43:20;;;;;;;;;;;;;;;7.46;65.83;96832.66;5053147;28;20412;-69
2022/11/11 03:45:45;;;;;;;;;;;;;;;7.44;65.38;96840.06;5047580;28;20470;-68
2022/11/11 03:48:11;;;;;;;;;;;;;;;7.43;65.98;96839.25;5049647;28;20009;-69
2022/11/11 03:50:36;;;;;;;;;;;;;;;7.43;65.94;96839.25;5051548;28;20020;-70
2022/11/11 03:53:01;;;;;;;;;;;;;;;7.42;65.91;96826.25;5051285;28;20010;-70
2022/11/11 03:55:27;;;;;;;;;;;;;;;7.43;65.71;96827.88;5049990;28;20014;-70
2022/11/11 03:57:52;;;;;;;;;;;;;;;7.42;66.12;96823.59;5051252;28;20108;-71
2022/11/11 04:00:19;;;;;;;;;;;;;;;7.38;66.04;96822.50;5050467;28;20013;-70
2022/11/11 04:10:59;;;;;;;;;;;;;;;7.32;65.97;96823.44;5050524;28;20030;-70
2022/11/11 04:16:08;;;;;;;;;;;;;;;7.33;66.40;96823.22;5050986;28;20104;-70
2022/11/11 04:25:47;;;;;;;;;;;;;;;7.30;66.01;96800.66;5051259;28;20021;-70
2022/11/11 04:26:48;;;;;;;;;;;;;;;7.29;65.51;96801.72;5049430;28;20118;-70
2022/11/11 04:29:28;;;;;;;;;;;;;;;7.26;65.31;96796.91;5050652;28;20222;-70
2022/11/11 04:34:37;;;;;;;;;;;;;;;7.27;65.27;96790.59;5051167;28;20027;-69
2022/11/11 04:37:03;;;;;;;;;;;;;;;7.26;65.36;96790.81;5048642;28;20014;-70
2022/11/11 04:42:11;;;;;;;;;;;;;;;7.20;65.18;96794.44;5049806;28;20055;-69
2022/11/11 04:47:21;;;;;;;;;;;;;;;7.19;65.36;96790.97;5048005;28;20075;-69
2022/11/11 04:49:46;;;;;;;;;;;;;;;7.19;65.59;96800.78;5049260;28;20466;-70
2022/11/11 04:52:26;;;;;;;;;;;;;;;7.17;65.80;96801.03;5050520;28;20010;-69
2022/11/11 04:57:43;;;;;;;;;;;;;;;7.14;65.71;96809.44;5050516;28;20021;-70
2022/11/11 05:00:09;;;;;;;;;;;;;;;7.15;65.28;96816.31;5030265;28;20084;-70
2022/11/11 05:05:19;;;;;;;;;;;;;;;7.17;66.33;96816.91;5049065;28;20152;-69
2022/11/11 05:10:29;;;;;;;;;;;;;;;7.24;66.13;96804.28;5049051;28;20039;-69
2022/11/11 05:21:19;;;;;;;;;;;;;;;7.23;66.23;96809.84;5049649;28;20112;-70
2022/11/11 05:21:19;;;;;;;;;;;;;;;7.27;66.13;96818.91;5049345;28;20051;-69
2022/11/11 05:26:39;;;;;;;;;;;;;;;7.27;65.83;96810.97;5011760;28;20018;-69
2022/11/11 05:29:04;;;;;;;;;;;;;;;7.30;66.24;96816.56;5048689;28;20010;-69
2022/11/11 05:31:30;;;;;;;;;;;;;;;7.05;66.79;96813.50;5037214;28;20528;-69
2022/11/11 05:33:55;;;;;;;;;;;;;;;7.03;66.19;96818.25;5048613;28;20022;-70
2022/11/11 05:36:21;;;;;;;;;;;;;;;7.11;66.50;96815.19;5048538;28;20014;-70
2022/11/11 05:38:46;;;;;;;;;;;;;;;7.19;66.37;96814.78;5049514;28;20592;-69
2022/11/11 05:41:11;;;;;;;;;;;;;;;7.26;66.52;96823.38;5049322;28;20014;-70
2022/11/11 05:43:36;;;;;;;;;;;;;;;7.30;66.21;96821.03;5049074;28;20092;-70
2022/11/11 05:46:03;;;;;;;;;;;;;;;7.32;65.52;96834.03;5046611;28;20017;-69
2022/11/11 05:48:29;;;;;;;;;;;;;;;7.36;65.75;96840.47;5048947;28;20131;-70
2022/11/11 05:50:56;;;;;;;;;;;;;;;7.39;65.60;96843.44;5047458;28;20104;-69
2022/11/11 05:53:22;;;;;;;;;;;;;;;7.41;66.13;96857.22;5047663;28;20103;-69
2022/11/11 05:55:51;;;;;;;;;;;;;;;7.42;65.53;96858.84;5047619;28;20358;-69
2022/11/11 05:58:16;;;;;;;;;;;;;;;7.41;65.64;96865.16;5049909;28;20063;-69
2022/11/11 06:00:42;;;;;;;;;;;;;;;7.42;65.35;96865.97;5047171;28;20109;-69
2022/11/11 06:03:07;;;;;;;;;;;;;;;7.44;65.08;96871.84;5048174;28;20021;-69
2022/11/11 06:05:34;;;;;;;;;;;;;;;7.44;65.31;96872.63;5048457;28;20385;-69
2022/11/11 06:07:59;;;;;;;;;;;;;;;7.44;65.14;96867.34;5047202;28;20120;-71
2022/11/11 06:10:30;;;;;;;;;;;;;;;7.45;65.42;96865.50;5049432;28;20093;-70
2022/11/11 06:13:03;;;;;;;;;;;;;;;7.43;65.33;96867.59;5048917;28;20465;-70
2022/11/11 06:15:29;;;;;;;;;;;;;;;7.42;65.14;96876.53;5046332;28;20015;-72
2022/11/11 06:17:54;;;;;;;;;;;;;;;7.43;65.12;96884.28;5047639;28;20096;-69
2022/11/11 06:20:19;;;;;;;;;;;;;;;7.41;64.97;96881.03;5048617;28;20016;-71
2022/11/11 06:22:57;;;;;;;;;;;;;;;7.43;64.96;96880.81;5049740;28;20020;-70
2022/11/11 06:28:09;;;;;;;;;;;;;;;7.40;65.21;96881.28;5049754;28;20016;-69
2022/11/11 06:30:35;;;;;;;;;;;;;;;7.48;65.60;96889.66;5046851;28;20010;-69
2022/11/11 06:33:00;;;;;;;;;;;;;;;7.56;65.16;96896.38;5046828;28;20017;-71
2022/11/11 06:35:25;;;;;;;;;;;;;;;7.60;65.04;96897.50;5049308;28;20535;-69
2022/11/11 06:37:50;;;;;;;;;;;;;;;7.63;65.35;96898.88;5048357;28;20014;-69
2022/11/11 06:40:16;;;;;;;;;;;;;;;7.61;65.49;96903.59;5049940;28;20444;-69
2022/11/11 06:42:41;;;;;;;;;;;;;;;7.72;65.47;96906.16;5046570;28;20014;-68
2022/11/11 06:45:06;;;;;;;;;;;;;;;7.52;65.56;96909.31;5047427;28;20417;-69
2022/11/11 06:47:32;;;;;;;;;;;;;;;7.56;65.48;96915.72;5049380;28;20124;-71
2022/11/11 06:49:57;;;;;;;;;;;;;;;7.30;66.58;96914.50;5050056;28;20013;-69
2022/11/11 06:52:22;;;;;;;;;;;;;;;7.38;66.26;96921.25;5051313;28;20039;-68
2022/11/11 06:54:47;;;;;;;;;;;;;;;7.76;65.69;96917.06;5052329;28;20021;-69
2022/11/11 06:57:12;;;;;;;;;;;;;;;7.96;65.80;96924.53;5052981;28;20058;-68
2022/11/11 06:59:38;;;;;;;;;;;;;;;8.14;64.94;96929.56;5053695;28;20025;-68
2022/11/11 07:02:03;;;;;;;;;;;;;;;8.30;64.72;96927.91;5050439;28;20013;-69
2022/11/11 07:04:28;;;;;;;;;;;;;;;8.44;64.83;96939.78;5040522;28;20014;-68
2022/11/11 07:06:53;;;;;;;;;;;;;;;8.60;64.48;96943.44;5032670;28;20010;-69
2022/11/11 07:09:18;;;;;;;;;;;;;;;8.73;64.28;96945.72;5057544;28;20021;-68
2022/11/11 07:11:44;;;;;;;;;;;;;;;8.85;63.83;96943.75;5051065;28;20045;-67
2022/11/11 07:14:09;;;;;;;;;;;;;;;8.97;63.91;96956.88;5066222;22;20381;-70
2022/11/11 07:16:34;;;;;;;;;;;;;;;9.09;63.43;96957.53;5031917;28;20018;-71
2022/11/11 07:18:59;;;;;;;;;;;;;;;9.04;62.57;96959.31;5031070;28;20864;-71
2022/11/11 07:21:24;;;;;;;;;;;;;;;8.98;63.51;96968.28;5048093;28;20017;-71
2022/11/11 07:23:49;;;;;;;;;;;;;;;8.82;63.00;96981.38;5050688;28;20021;-71
2022/11/11 07:26:15;;;;;;;;;;;;;;;9.02;63.38;96978.16;5051882;28;20385;-71
2022/11/11 07:28:40;;;;;;;;;;;;;;;9.32;63.13;96980.34;5033855;28;20156;-71
2022/11/11 07:31:05;;;;;;;;;;;;;;;9.44;63.47;96979.38;5034121;28;20016;-71
2022/11/11 07:33:30;;;;;;;;;;;;;;;9.56;62.25;96980.81;5051451;28;20079;-70
2022/11/11 07:35:55;;;;;;;;;;;;;;;9.77;62.75;96973.81;5033474;28;20014;-70
2022/11/11 07:38:21;;;;;;;;;;;;;;;9.94;62.81;96971.06;5038896;28;20021;-70
2022/11/11 07:40:46;;;;;;;;;;;;;;;9.94;62.32;96975.56;5018763;28;20049;-71
2022/11/11 07:43:11;;;;;;;;;;;;;;;9.79;62.06;96979.69;5051694;28;20442;-71
2022/11/11 07:45:36;;;;;;;;;;;;;;;9.43;62.65;96972.47;5050562;28;20017;-71
2022/11/11 07:48:01;;;;;;;;;;;;;;;9.52;62.18;96976.25;5034652;28;20016;-71
2022/11/11 07:50:27;;;;;;;;;;;;;;;9.62;62.48;96979.00;5033930;28;20021;-72
2022/11/11 07:52:52;;;;;;;;;;;;;;;9.88;62.81;96975.53;5033499;28;20347;-72
2022/11/11 07:55:17;;;;;;;;;;;;;;;9.90;61.96;96977.91;5032565;28;20037;-72
2022/11/11 07:57:43;;;;;;;;;;;;;;;10.27;62.18;96971.81;5051287;28;20010;-72
2022/11/11 08:00:08;;;;;;;;;;;;;;;10.58;62.30;96984.22;5048728;28;20096;-71
2022/11/11 08:02:33;;;;;;;;;;;;;;;10.80;61.28;96975.28;5051256;28;20009;-71
2022/11/11 08:04:58;;;;;;;;;;;;;;;10.99;60.47;96976.41;5051147;28;20420;-73
2022/11/11 08:07:24;;;;;;;;;;;;;;;11.15;60.72;96975.41;5049529;28;20483;-72
2022/11/11 08:09:49;;;;;;;;;;;;;;;11.32;60.37;96982.41;5052576;28;20005;-73
2022/11/11 08:14:58;;;;;;;;;;;;;;;11.57;59.93;96974.44;5051748;28;20425;-72
2022/11/11 08:17:23;;;;;;;;;;;;;;;11.67;59.08;96977.13;5032045;28;20013;-72
2022/11/11 08:19:51;;;;;;;;;;;;;;;11.75;59.41;96973.09;5051347;28;22625;-71
2022/11/11 08:22:16;;;;;;;;;;;;;;;11.81;59.06;96972.03;5050014;28;20098;-73
2022/11/11 08:24:41;;;;;;;;;;;;;;;11.85;59.23;96975.00;5049661;28;20025;-72
2022/11/11 08:27:06;;;;;;;;;;;;;;;11.86;59.19;96961.41;5033021;28;20049;-72
2022/11/11 08:29:31;;;;;;;;;;;;;;;11.87;58.91;96965.66;5051276;28;20544;-72
2022/11/11 08:31:57;;;;;;;;;;;;;;;11.89;59.09;96955.56;5031383;28;20092;-71
2022/11/11 08:34:22;;;;;;;;;;;;;;;11.93;58.92;96953.97;5051722;28;20028;-72
2022/11/11 08:36:47;;;;;;;;;;;;;;;11.97;59.10;96952.31;5032302;28;20025;-72
2022/11/11 08:39:12;;;;;;;;;;;;;;;12.06;58.81;96951.78;5051038;28;20048;-72
2022/11/11 08:41:38;;;;;;;;;;;;;;;12.13;58.41;96957.66;5032612;28;20458;-72
2022/11/11 08:44:03;;;;;;;;;;;;;;;12.19;58.44;96954.72;5032999;28;20018;-72
2022/11/11 08:46:29;;;;;;;;;;;;;;;12.26;58.51;96948.31;5049246;28;20017;-72
2022/11/11 08:48:54;;;;;;;;;;;;;;;12.28;58.57;96946.94;5029279;28;20108;-72
2022/11/11 08:51:19;;;;;;;;;;;;;;;12.33;58.44;96943.47;5032845;28;20057;-72
2022/11/11 08:53:44;;;;;;;;;;;;;;;12.38;58.53;96946.13;5032184;28;20013;-72
2022/11/11 08:56:11;;;;;;;;;;;;;;;12.43;58.46;96944.25;5025193;28;20618;-72
2022/11/11 08:58:36;;;;;;;;;;;;;;;12.49;58.07;96945.06;5049839;28;20021;-72
2022/11/11 09:01:02;;;;;;;;;;;;;;;12.55;58.13;96943.16;5050076;28;20011;-73
2022/11/11 09:03:29;;;;;;;;;;;;;;;12.60;57.97;96935.94;5042247;28;20017;-73
2022/11/11 09:05:54;;;;;;;;;;;;;;;12.70;57.82;96935.91;5045146;28;20026;-72
2022/11/11 09:08:19;;;;;;;;;;;;;;;12.79;57.45;96920.09;5049422;28;20013;-73
2022/11/11 09:10:44;;;;;;;;;;;;;;;12.91;57.26;96919.78;5031725;28;20020;-72
2022/11/11 09:13:10;;;;;;;;;;;;;;;13.05;56.81;96918.13;5044204;28;20006;-72
2022/11/11 09:15:35;;;;;;;;;;;;;;;13.24;56.71;96920.94;5049062;28;20020;-73
2022/11/11 09:18:02;;;;;;;;;;;;;;;13.41;56.17;96913.38;5042140;28;20418;-72
2022/11/11 09:20:27;;;;;;;;;;;;;;;13.60;55.94;96916.16;5040312;28;20108;-71
2022/11/11 09:22:53;;;;;;;;;;;;;;;13.81;55.30;96916.78;5044187;28;20122;-72
2022/11/11 09:25:18;;;;;;;;;;;;;;;14.03;55.30;96914.47;5046182;28;20014;-72
2022/11/11 09:27:43;;;;;;;;;;;;;;;14.25;54.92;96919.31;5049372;28;20056;-72
2022/11/11 09:30:09;;;;;;;;;;;;;;;14.48;54.50;96928.47;5048960;28;20132;-72
2022/11/11 09:32:35;;;;;;;;;;;;;;;14.72;54.18;96930.34;5048502;28;20120;-72
2022/11/11 09:35:00;;;;;;;;;;;;;;;14.99;53.48;96927.06;5030467;28;20017;-75
2022/11/11 09:37:26;;;;;;;;;;;;;;;15.22;52.20;96936.13;5049537;28;20040;-73
2022/11/11 09:39:51;;;;;;;;;;;;;;;15.46;52.15;96925.34;5047905;28;20083;-74
2022/11/11 09:42:16;;;;;;;;;;;;;;;15.62;50.97;96928.59;5048651;28;20016;-77
2022/11/11 09:44:53;;;;;;;;;;;;;;;15.88;50.62;96931.69;5040706;28;20678;-71
2022/11/11 09:47:18;;;;;;;;;;;;;;;16.16;50.63;96929.84;5044871;28;20482;-73
2022/11/11 09:50:02;;;;;;;;;;;;;;;16.35;50.18;96920.63;5047288;28;20057;-71
2022/11/11 09:52:32;;;;;;;;;;;;;;;16.59;49.70;96925.84;5040646;28;20010;-74
2022/11/11 09:55:00;;;;;;;;;;;;;;;16.72;49.01;96921.56;5049052;28;20092;-72
2022/11/11 09:57:40;;;;;;;;;;;;;;;16.37;48.54;96937.22;5049040;28;20473;-73
2022/11/11 10:00:13;;;;;;;;;;;;;;;16.36;48.22;96932.16;5040350;28;20056;-74
2022/11/11 10:02:48;;;;;;;;;;;;;;;15.99;49.26;96939.28;5055682;28;20343;-72
2022/11/11 10:05:19;;;;;;;;;;;;;;;14.58;52.04;96938.25;5061534;28;20183;-70
2022/11/11 10:07:47;;;;;;;;;;;;;;;15.56;50.55;96936.72;5051175;28;20671;-70
2022/11/11 10:10:18;;;;;;;;;;;;;;;16.04;50.17;96941.06;5032635;28;20397;-69
2022/11/11 10:12:53;;;;;;;;;;;;;;;16.36;49.99;96943.72;5049404;28;20021;-69
2022/11/11 10:15:19;;;;;;;;;;;;;;;16.64;49.75;96936.47;5016778;28;20024;-67
2022/11/11 10:18:02;;;;;;;;;;;;;;;15.81;49.24;96934.72;5030272;28;20006;-68
2022/11/11 10:20:29;;;;;;;;;;;;;;;16.23;49.65;96932.97;5030498;28;20469;-69
2022/11/11 10:23:00;;;;;;;;;;;;;;;16.43;48.75;96924.53;5034039;28;20010;-70
2022/11/11 10:25:26;;;;;;;;;;;;;;;16.80;48.40;96926.25;5049442;28;20024;-69
2022/11/11 10:27:53;;;;;;;;;;;;;;;15.89;49.17;96928.69;5050446;28;20096;-70
2022/11/11 10:30:18;;;;;;;;;;;;;;;16.68;48.92;96925.13;5036176;28;20072;-70
2022/11/11 10:32:45;;;;;;;;;;;;;;;17.10;47.31;96924.03;5031358;28;20403;-69
2022/11/11 10:35:19;;;;;;;;;;;;;;;15.68;50.39;96930.91;5049867;28;20957;-70
2022/11/11 10:37:44;;;;;;;;;;;;;;;15.48;51.16;96934.69;5050033;28;20658;-69
2022/11/11 10:40:19;;;;;;;;;;;;;;;16.28;50.25;96930.19;5050188;28;20135;-70
2022/11/11 10:42:44;;;;;;;;;;;;;;;15.21;52.22;96931.88;5049979;28;20008;-68
2022/11/11 10:45:29;;;;;;;;;;;;;;;15.62;51.41;96934.75;5042189;28;20021;-69
2022/11/11 10:48:04;;;;;;;;;;;;;;;15.87;49.82;96930.91;5049485;28;20010;-69
2022/11/11 10:50:33;;;;;;;;;;;;;;;16.24;49.02;96931.88;5031865;28;20010;-68
2022/11/11 10:53:17;;;;;;;;;;;;;;;16.44;48.70;96926.13;5049753;28;20017;-68
2022/11/11 10:55:49;;;;;;;;;;;;;;;16.10;48.96;96924.56;5048640;28;20017;-69
2022/11/11 10:58:17;;;;;;;;;;;;;;;16.26;49.42;96922.41;5049171;28;20014;-69
2022/11/11 11:00:44;;;;;;;;;;;;;;;15.33;50.63;96927.66;5048791;28;20021;-69
2022/11/11 11:03:13;;;;;;;;;;;;;;;15.77;50.04;96929.16;5049788;28;20556;-70
2022/11/11 11:05:41;;;;;;;;;;;;;;;16.08;48.67;96924.09;5048108;28;20029;-69
2022/11/11 11:08:14;;;;;;;;;;;;;;;14.93;51.46;96936.25;5031330;28;20045;-69
2022/11/11 11:10:56;;;;;;;;;;;;;;;15.84;50.04;96932.25;5050025;28;20040;-67
2022/11/11 11:13:40;;;;;;;;;;;;;;;16.13;48.72;96933.94;5049838;28;20055;-67
2022/11/11 11:16:09;;;;;;;;;;;;;;;15.87;48.76;96944.31;5048395;28;20025;-69
2022/11/11 11:18:34;;;;;;;;;;;;;;;16.46;48.48;96936.56;5049635;28;20021;-67
2022/11/11 11:21:01;;;;;;;;;;;;;;;15.75;48.72;96936.69;5047919;28;20013;-69
2022/11/11 11:23:40;;;;;;;;;;;;;;;14.98;50.77;96942.34;5049542;28;20059;-69
2022/11/11 11:26:05;;;;;;;;;;;;;;;15.62;50.33;96936.63;5048899;28;20024;-66
2022/11/11 11:28:31;;;;;;;;;;;;;;;16.61;47.99;96929.00;5035446;28;20017;-70
2022/11/11 11:31:00;;;;;;;;;;;;;;;17.02;46.04;96928.19;5043887;28;20017;-71
2022/11/11 11:33:25;;;;;;;;;;;;;;;16.92;44.82;96933.00;5031618;28;20362;-69
2022/11/11 11:35:51;;;;;;;;;;;;;;;16.87;45.88;96928.53;5035706;28;20013;-68
2022/11/11 11:38:17;;;;;;;;;;;;;;;17.58;44.72;96929.66;5033622;28;20010;-69
2022/11/11 11:41:03;;;;;;;;;;;;;;;18.02;44.29;96922.72;5033852;28;20006;-70
2022/11/11 11:43:33;;;;;;;;;;;;;;;17.66;44.74;96918.16;5042569;28;20018;-67
2022/11/11 11:45:59;;;;;;;;;;;;;;;17.81;43.93;96910.84;5050923;28;20013;-69
2022/11/11 11:48:31;;;;;;;;;;;;;;;16.74;45.97;96914.00;5053220;28;20481;-68
2022/11/11 11:51:03;;;;;;;;;;;;;;;17.60;43.87;96910.50;5051899;28;20017;-69
2022/11/11 11:53:55;;;;;;;;;;;;;;;17.92;44.02;96904.13;5035367;28;20068;-69
2022/11/11 11:56:38;;;;;;;;;;;;;;;17.78;43.89;96904.19;5014369;28;20014;-68
2022/11/11 11:59:28;;;;;;;;;;;;;;;17.76;44.16;96902.88;5051964;28;20014;-69
2022/11/11 12:02:03;;;;;;;;;;;;;;;17.40;45.30;96896.44;5052731;28;20225;-68
2022/11/11 12:04:31;;;;;;;;;;;;;;;17.45;45.67;96900.09;5034202;28;20009;-68
2022/11/11 12:06:56;;;;;;;;;;;;;;;17.68;44.76;96890.94;5034371;28;20010;-66
2022/11/11 12:09:28;;;;;;;;;;;;;;;16.49;47.42;96893.78;5052700;28;20006;-69
2022/11/11 12:12:05;;;;;;;;;;;;;;;17.34;46.13;96889.56;5034893;28;20010;-70
2022/11/11 12:14:39;;;;;;;;;;;;;;;17.54;44.97;96891.00;5050704;28;20048;-71
2022/11/11 12:17:23;;;;;;;;;;;;;;;15.75;49.34;96898.34;5052311;28;20120;-71
2022/11/11 12:20:00;;;;;;;;;;;;;;;15.69;49.77;96897.63;5052128;28;20520;-71
2022/11/11 12:22:25;;;;;;;;;;;;;;;16.34;49.13;96902.94;5052840;28;20005;-70
2022/11/11 12:24:58;;;;;;;;;;;;;;;16.58;48.05;96897.38;5052284;28;20521;-71
2022/11/11 12:27:47;;;;;;;;;;;;;;;15.65;50.88;96911.91;5034703;28;20140;-68
2022/11/11 12:30:18;;;;;;;;;;;;;;;16.77;48.53;96899.16;5036093;28;20014;-68
2022/11/11 12:32:46;;;;;;;;;;;;;;;17.05;47.29;96898.03;5040368;28;20018;-69
2022/11/11 12:35:24;;;;;;;;;;;;;;;15.66;50.15;96894.72;5029445;28;20018;-70
2022/11/11 12:38:15;;;;;;;;;;;;;;;16.50;48.45;96890.00;5049261;28;20079;-69
2022/11/11 12:40:55;;;;;;;;;;;;;;;16.43;48.40;96889.63;5022571;28;20500;-69
2022/11/11 12:43:37;;;;;;;;;;;;;;;15.85;49.82;96890.91;5046640;28;20551;-69
2022/11/11 12:46:03;;;;;;;;;;;;;;;15.98;49.67;96883.22;5050751;28;20179;-69
2022/11/11 12:48:49;;;;;;;;;;;;;;;16.74;48.40;96883.66;5034340;28;20405;-70
2022/11/11 12:51:21;;;;;;;;;;;;;;;16.18;48.80;96888.22;5052217;28;20096;-69
2022/11/11 12:54:03;;;;;;;;;;;;;;;15.27;51.48;96895.84;5033606;28;20060;-69
2022/11/11 12:56:37;;;;;;;;;;;;;;;15.65;50.47;96885.88;5051679;28;20119;-70
2022/11/11 12:59:05;;;;;;;;;;;;;;;15.68;50.71;96879.16;5050668;28;20132;-69
2022/11/11 13:01:31;;;;;;;;;;;;;;;15.74;51.06;96881.44;5050892;28;20060;-70
2022/11/11 13:04:00;;;;;;;;;;;;;;;15.82;50.29;96888.03;5051931;28;20002;-69
2022/11/11 13:06:29;;;;;;;;;;;;;;;15.93;50.31;96881.41;5032320;28;20040;-69
2022/11/11 13:08:59;;;;;;;;;;;;;;;16.27;49.77;96885.59;5033630;28;20016;-68
2022/11/11 13:11:37;;;;;;;;;;;;;;;16.35;49.33;96893.00;5051615;28;20377;-68
2022/11/11 13:14:13;;;;;;;;;;;;;;;16.38;49.15;96892.41;5049073;28;20013;-68
2022/11/11 13:16:39;;;;;;;;;;;;;;;16.37;49.53;96899.63;5031423;28;20032;-69
2022/11/11 13:19:04;;;;;;;;;;;;;;;16.40;49.37;96892.88;5051462;28;20005;-68
2022/11/11 13:21:33;;;;;;;;;;;;;;;15.35;51.64;96897.84;5051706;28;20370;-68
2022/11/11 13:23:58;;;;;;;;;;;;;;;15.27;52.14;96896.66;5032572;28;20492;-67
2022/11/11 13:26:27;;;;;;;;;;;;;;;14.85;54.53;96899.41;5050834;28;20112;-67
2022/11/11 13:28:56;;;;;;;;;;;;;;;14.77;55.15;96893.56;5049250;28;20014;-68
2022/11/11 13:31:22;;;;;;;;;;;;;;;14.56;55.38;96889.56;5032687;28;20492;-73
2022/11/11 13:33:49;;;;;;;;;;;;;;;15.13;53.35;96894.97;5050573;28;20006;-69
2022/11/11 13:36:16;;;;;;;;;;;;;;;14.87;54.31;96891.84;5050690;28;20013;-68
2022/11/11 13:38:44;;;;;;;;;;;;;;;14.55;55.39;96899.47;5051057;28;20095;-71
2022/11/11 13:41:10;;;;;;;;;;;;;;;14.37;55.65;96894.03;5051164;28;20446;-69
2022/11/11 13:43:43;;;;;;;;;;;;;;;13.59;58.49;96895.06;5041617;28;20147;-70
2022/11/11 13:46:28;;;;;;;;;;;;;;;14.51;55.77;96901.13;5048323;28;20017;-69
2022/11/11 13:48:54;;;;;;;;;;;;;;;14.61;55.46;96894.84;5050484;28;20079;-67
2022/11/11 13:51:38;;;;;;;;;;;;;;;14.77;56.69;96884.75;5050841;28;20002;-67
2022/11/11 13:54:06;;;;;;;;;;;;;;;15.00;54.42;96897.31;5033000;28;20009;-66
2022/11/11 13:56:34;;;;;;;;;;;;;;;14.02;57.11;96888.78;5031067;28;20010;-69
2022/11/11 13:59:00;;;;;;;;;;;;;;;14.83;55.32;96896.97;5029322;28;20010;-68
2022/11/11 14:01:32;;;;;;;;;;;;;;;14.48;55.80;96899.00;5049326;28;20119;-66
2022/11/11 14:03:59;;;;;;;;;;;;;;;14.39;56.13;96905.28;5031240;28;20006;-66
2022/11/11 14:06:24;;;;;;;;;;;;;;;14.70;55.73;96903.84;5012780;28;20041;-67
2022/11/11 14:08:50;;;;;;;;;;;;;;;14.28;56.15;96910.72;5036437;28;20017;-66
2022/11/11 14:11:25;;;;;;;;;;;;;;;13.69;58.16;96911.81;5050114;28;20055;-66
2022/11/11 14:13:57;;;;;;;;;;;;;;;14.04;59.58;96913.38;5031778;28;20567;-66